createdAt,value
2017-12-30T00:00:00.483Z,91.59
2017-12-30T00:01:05.255Z,91.65
2017-12-30T00:02:09.859Z,91.61
2017-12-30T00:03:14.353Z,91.53
2017-12-30T00:04:18.811Z,91.68
2017-12-30T00:05:23.407Z,91.61
2017-12-30T00:06:27.869Z,91.63
2017-12-30T00:07:32.763Z,91.83
2017-12-30T00:08:37.910Z,92.11
2017-12-30T00:09:42.731Z,92.21
2017-12-30T00:10:47.817Z,91.89
2017-12-30T00:11:52.235Z,91.97
2017-12-30T00:12:56.725Z,92.15
2017-12-30T00:14:01.155Z,92.43
2017-12-30T00:15:10.584Z,92.43
2017-12-30T00:16:16.613Z,92.45
2017-12-30T00:17:21.041Z,92.66
2017-12-30T00:18:25.569Z,92.97
2017-12-30T00:19:30.216Z,92.85
2017-12-30T00:20:35.531Z,92.75
2017-12-30T00:21:39.912Z,92.94
2017-12-30T00:22:44.392Z,93.12
2017-12-30T00:23:49.451Z,93.21
2017-12-30T00:24:53.847Z,93.26
2017-12-30T00:25:58.962Z,93.33
2017-12-30T00:27:03.331Z,93.28
2017-12-30T00:28:07.672Z,93.18
2017-12-30T00:29:12.113Z,93.27
2017-12-30T00:30:16.722Z,93.51
2017-12-30T00:31:21.493Z,93.49
2017-12-30T00:32:27.994Z,93.45
2017-12-30T00:33:32.966Z,93.69
2017-12-30T00:34:37.331Z,93.74
2017-12-30T00:35:41.740Z,93.68
2017-12-30T00:36:46.088Z,93.64
2017-12-30T00:37:50.653Z,93.70
2017-12-30T00:38:55.401Z,93.91
2017-12-30T00:39:59.834Z,93.96
2017-12-30T00:41:04.349Z,93.97
2017-12-30T00:42:08.751Z,94.12
2017-12-30T00:43:13.103Z,94.16
2017-12-30T00:44:17.559Z,93.98
2017-12-30T00:45:22.537Z,93.65
2017-12-30T00:46:27.065Z,93.73
2017-12-30T00:47:31.892Z,93.56
2017-12-30T00:48:36.336Z,93.91
2017-12-30T00:49:40.710Z,93.98
2017-12-30T00:50:45.936Z,93.64
2017-12-30T00:51:51.313Z,93.48
2017-12-30T00:52:55.656Z,93.53
2017-12-30T00:54:00.030Z,93.50
2017-12-30T00:55:04.401Z,93.58
2017-12-30T00:57:23.734Z,93.80
2017-12-30T00:58:29.019Z,93.55
2017-12-30T00:59:33.460Z,93.79
2017-12-30T01:00:38.112Z,93.83
2017-12-30T01:01:42.495Z,93.62
2017-12-30T01:02:47.234Z,93.82
2017-12-30T01:03:52.233Z,93.63
2017-12-30T01:04:56.597Z,93.89
2017-12-30T01:06:00.952Z,93.99
2017-12-30T01:07:05.392Z,94.10
2017-12-30T01:08:09.777Z,93.95
2017-12-30T01:09:14.375Z,93.98
2017-12-30T01:10:18.727Z,93.91
2017-12-30T01:11:23.064Z,94.06
2017-12-30T01:12:27.491Z,94.26
2017-12-30T01:13:31.863Z,94.24
2017-12-30T01:14:36.560Z,94.13
2017-12-30T01:15:41.278Z,94.03
2017-12-30T01:16:45.713Z,93.88
2017-12-30T01:17:51.184Z,93.82
2017-12-30T01:18:55.600Z,94.08
2017-12-30T01:20:00.052Z,93.86
2017-12-30T01:21:04.784Z,93.81
2017-12-30T01:22:09.202Z,93.84
2017-12-30T01:23:13.629Z,93.72
2017-12-30T01:24:17.971Z,93.77
2017-12-30T01:25:27.275Z,93.72
2017-12-30T01:26:31.630Z,93.69
2017-12-30T01:27:36.022Z,93.80
2017-12-30T01:28:40.526Z,93.93
2017-12-30T01:29:45.757Z,93.83
2017-12-30T01:30:51.319Z,93.57
2017-12-30T01:31:56.122Z,93.47
2017-12-30T01:33:01.265Z,93.42
2017-12-30T01:34:05.797Z,93.27
2017-12-30T01:35:10.236Z,93.14
2017-12-30T01:36:18.060Z,93.20
2017-12-30T01:37:23.396Z,93.05
2017-12-30T01:38:28.525Z,93.15
2017-12-30T01:39:32.895Z,92.93
2017-12-30T01:40:37.617Z,92.89
2017-12-30T01:41:42.038Z,92.99
2017-12-30T01:42:46.391Z,92.84
2017-12-30T01:43:50.767Z,92.75
2017-12-30T01:44:55.645Z,92.73
2017-12-30T01:46:00.203Z,92.74
2017-12-30T01:47:04.528Z,92.61
2017-12-30T01:48:08.813Z,92.65
2017-12-30T01:49:13.244Z,92.24
2017-12-30T01:50:17.675Z,92.08
2017-12-30T01:51:22.382Z,92.11
2017-12-30T01:52:26.852Z,92.00
2017-12-30T01:53:31.997Z,91.89
2017-12-30T01:54:36.341Z,92.12
2017-12-30T01:55:40.716Z,92.07
2017-12-30T01:56:45.070Z,91.96
2017-12-30T01:57:49.446Z,91.87
2017-12-30T01:58:53.798Z,92.05
2017-12-30T01:59:58.252Z,92.07
2017-12-30T02:01:03.001Z,92.36
2017-12-30T02:02:07.369Z,91.95
2017-12-30T02:03:11.776Z,91.81
2017-12-30T02:04:16.072Z,91.97
2017-12-30T02:05:20.516Z,91.98
2017-12-30T02:06:24.913Z,91.87
2017-12-30T02:07:29.970Z,91.91
2017-12-30T02:08:34.277Z,91.88
2017-12-30T02:09:39.385Z,91.97
2017-12-30T02:10:43.683Z,92.09
2017-12-30T02:11:47.976Z,92.16
2017-12-30T02:12:52.458Z,92.15
2017-12-30T02:13:57.216Z,92.03
2017-12-30T02:15:03.453Z,92.02
2017-12-30T02:16:08.067Z,92.13
2017-12-30T02:17:12.390Z,92.17
2017-12-30T02:18:17.094Z,92.29
2017-12-30T02:19:21.632Z,92.11
2017-12-30T02:20:26.189Z,92.17
2017-12-30T02:21:31.369Z,92.26
2017-12-30T02:22:35.719Z,92.35
2017-12-30T02:23:40.041Z,92.25
2017-12-30T02:24:44.786Z,92.30
2017-12-30T02:25:50.059Z,92.58
2017-12-30T02:26:54.529Z,92.51
2017-12-30T02:27:58.920Z,92.23
2017-12-30T02:29:03.324Z,92.27
2017-12-30T02:30:07.862Z,92.15
2017-12-30T02:31:12.474Z,91.78
2017-12-30T02:32:17.135Z,91.83
2017-12-30T02:33:21.633Z,91.91
2017-12-30T02:34:26.031Z,91.93
2017-12-30T02:35:30.959Z,92.03
2017-12-30T02:36:35.269Z,92.11
2017-12-30T02:37:39.642Z,91.70
2017-12-30T02:38:44.065Z,91.86
2017-12-30T02:39:48.666Z,91.47
2017-12-30T02:40:53.016Z,91.30
2017-12-30T02:41:57.571Z,91.24
2017-12-30T02:43:02.033Z,91.59
2017-12-30T02:44:06.366Z,91.64
2017-12-30T02:45:13.433Z,91.45
2017-12-30T02:46:17.875Z,91.64
2017-12-30T02:47:22.317Z,91.22
2017-12-30T02:48:27.349Z,91.17
2017-12-30T02:49:31.725Z,91.44
2017-12-30T02:50:36.167Z,91.23
2017-12-30T02:51:40.841Z,91.10
2017-12-30T02:52:45.136Z,91.26
2017-12-30T02:53:49.607Z,91.72
2017-12-30T02:54:54.012Z,91.37
2017-12-30T02:55:58.360Z,91.28
2017-12-30T02:57:03.378Z,91.33
2017-12-30T02:58:08.038Z,91.05
2017-12-30T02:59:12.488Z,91.48
2017-12-30T03:00:22.167Z,91.42
2017-12-30T03:01:26.611Z,91.44
2017-12-30T03:02:32.048Z,90.84
2017-12-30T03:03:36.713Z,90.90
2017-12-30T03:04:41.185Z,90.56
2017-12-30T03:05:46.154Z,90.72
2017-12-30T03:06:50.508Z,90.46
2017-12-30T03:07:54.832Z,90.06
2017-12-30T03:08:59.106Z,90.24
2017-12-30T03:10:03.869Z,90.31
2017-12-30T03:11:08.300Z,90.46
2017-12-30T03:12:12.603Z,90.08
2017-12-30T03:13:16.930Z,90.06
2017-12-30T03:14:21.357Z,90.21
2017-12-30T03:15:31.154Z,90.32
2017-12-30T03:16:35.822Z,90.36
2017-12-30T03:17:54.900Z,89.95
2017-12-30T03:18:59.325Z,90.07
2017-12-30T03:20:03.716Z,90.06
2017-12-30T03:21:08.144Z,90.10
2017-12-30T03:22:13.351Z,90.13
2017-12-30T03:23:31.358Z,90.16
2017-12-30T03:24:35.949Z,89.96
2017-12-30T03:25:40.450Z,90.00
2017-12-30T03:26:47.614Z,90.19
2017-12-30T03:27:52.069Z,90.06
2017-12-30T03:28:56.701Z,90.12
2017-12-30T03:30:01.021Z,90.02
2017-12-30T03:31:06.244Z,89.95
2017-12-30T03:32:10.790Z,90.24
2017-12-30T03:33:15.429Z,90.35
2017-12-30T03:34:19.756Z,89.96
2017-12-30T03:35:25.318Z,90.01
2017-12-30T03:36:30.314Z,90.05
2017-12-30T03:37:34.754Z,90.03
2017-12-30T03:38:39.167Z,89.78
2017-12-30T03:39:43.484Z,89.70
2017-12-30T03:40:48.833Z,89.95
2017-12-30T03:41:53.292Z,89.96
2017-12-30T03:42:57.611Z,89.80
2017-12-30T03:44:01.929Z,89.78
2017-12-30T03:45:07.084Z,89.80
2017-12-30T03:46:12.188Z,89.95
2017-12-30T03:47:16.781Z,89.89
2017-12-30T03:48:21.636Z,89.89
2017-12-30T03:49:29.687Z,89.89
2017-12-30T03:50:34.289Z,89.64
2017-12-30T03:51:38.694Z,89.69
2017-12-30T03:52:43.366Z,89.22
2017-12-30T03:53:49.425Z,89.42
2017-12-30T03:54:53.808Z,89.57
2017-12-30T03:55:58.153Z,89.63
2017-12-30T03:57:02.430Z,89.94
2017-12-30T03:58:06.809Z,89.64
2017-12-30T03:59:11.156Z,89.81
2017-12-30T04:00:31.379Z,89.78
2017-12-30T04:01:35.687Z,89.35
2017-12-30T04:02:40.013Z,89.25
2017-12-30T04:03:44.326Z,89.44
2017-12-30T04:04:49.797Z,89.73
2017-12-30T04:05:54.480Z,89.64
2017-12-30T04:06:58.825Z,89.37
2017-12-30T04:08:03.472Z,89.41
2017-12-30T04:09:07.833Z,89.45
2017-12-30T04:10:12.164Z,89.61
2017-12-30T04:11:16.778Z,89.83
2017-12-30T04:12:22.204Z,89.83
2017-12-30T04:13:26.525Z,89.89
2017-12-30T04:14:30.860Z,90.00
2017-12-30T04:15:35.496Z,90.11
2017-12-30T04:16:40.190Z,89.94
2017-12-30T04:17:44.843Z,90.05
2017-12-30T04:18:49.878Z,90.21
2017-12-30T04:19:54.197Z,90.20
2017-12-30T04:21:00.684Z,89.93
2017-12-30T04:22:07.279Z,89.92
2017-12-30T04:23:11.606Z,90.30
2017-12-30T04:24:16.281Z,90.38
2017-12-30T04:25:20.880Z,90.43
2017-12-30T04:26:25.455Z,90.39
2017-12-30T04:27:29.849Z,90.63
2017-12-30T04:28:34.318Z,90.65
2017-12-30T04:29:38.744Z,90.89
2017-12-30T04:30:43.341Z,91.04
2017-12-30T04:31:48.417Z,91.36
2017-12-30T04:32:52.718Z,91.36
2017-12-30T04:33:57.153Z,91.54
2017-12-30T04:35:01.675Z,91.45
2017-12-30T04:36:06.029Z,91.69
2017-12-30T04:37:10.630Z,91.81
2017-12-30T04:38:15.069Z,91.96
2017-12-30T04:39:19.420Z,91.90
2017-12-30T04:40:24.570Z,91.94
2017-12-30T04:41:28.871Z,91.80
2017-12-30T04:42:33.232Z,91.63
2017-12-30T04:43:37.694Z,91.64
2017-12-30T04:44:42.017Z,91.69
2017-12-30T04:45:47.748Z,91.73
2017-12-30T04:46:52.417Z,91.58
2017-12-30T04:47:56.729Z,91.33
2017-12-30T04:49:01.490Z,91.57
2017-12-30T04:50:05.829Z,91.22
2017-12-30T04:51:10.248Z,91.43
2017-12-30T04:52:14.576Z,91.43
2017-12-30T04:53:18.869Z,91.46
2017-12-30T04:54:23.205Z,91.32
2017-12-30T04:55:27.925Z,91.00
2017-12-30T04:56:33.306Z,90.86
2017-12-30T04:57:37.686Z,91.04
2017-12-30T04:58:41.988Z,90.75
2017-12-30T04:59:46.376Z,90.70
2017-12-30T05:00:51.404Z,90.72
2017-12-30T05:01:55.836Z,90.82
2017-12-30T05:03:00.241Z,90.45
2017-12-30T05:04:04.601Z,90.19
2017-12-30T05:05:11.241Z,90.33
2017-12-30T05:06:15.652Z,90.35
2017-12-30T05:07:20.371Z,90.38
2017-12-30T05:08:24.787Z,90.15
2017-12-30T05:09:29.725Z,90.31
2017-12-30T05:10:34.823Z,90.42
2017-12-30T05:11:39.267Z,90.41
2017-12-30T05:12:43.609Z,90.23
2017-12-30T05:13:49.227Z,90.01
2017-12-30T05:14:53.552Z,90.20
2017-12-30T05:16:06.323Z,90.42
2017-12-30T05:17:10.706Z,90.56
2017-12-30T05:18:20.675Z,90.69
2017-12-30T05:19:25.022Z,90.43
2017-12-30T05:20:29.359Z,90.13
2017-12-30T05:21:33.659Z,89.98
2017-12-30T05:22:37.992Z,90.12
2017-12-30T05:23:42.607Z,89.92
2017-12-30T05:24:48.238Z,89.85
2017-12-30T05:25:53.320Z,90.01
2017-12-30T05:26:57.715Z,90.12
2017-12-30T05:28:02.019Z,90.25
2017-12-30T05:29:06.435Z,90.47
2017-12-30T05:30:12.918Z,90.46
2017-12-30T05:31:17.415Z,90.32
2017-12-30T05:32:22.030Z,89.92
2017-12-30T05:33:26.754Z,89.73
2017-12-30T05:34:32.368Z,89.68
2017-12-30T05:35:36.671Z,89.46
2017-12-30T05:36:41.073Z,89.53
2017-12-30T05:37:45.404Z,89.60
2017-12-30T05:38:50.044Z,89.42
2017-12-30T05:39:54.556Z,89.32
2017-12-30T05:40:59.049Z,89.58
2017-12-30T05:42:03.759Z,89.16
2017-12-30T05:43:08.212Z,89.24
2017-12-30T05:44:20.881Z,89.18
2017-12-30T05:45:25.463Z,89.26
2017-12-30T05:46:30.783Z,88.73
2017-12-30T05:47:35.235Z,88.80
2017-12-30T05:48:39.902Z,89.13
2017-12-30T05:49:44.224Z,89.18
2017-12-30T05:50:48.879Z,89.26
2017-12-30T05:51:53.939Z,88.55
2017-12-30T05:52:58.376Z,88.28
2017-12-30T05:54:02.692Z,88.43
2017-12-30T05:55:07.020Z,88.36
2017-12-30T05:56:11.424Z,88.10
2017-12-30T05:57:16.340Z,87.96
2017-12-30T05:58:20.831Z,87.84
2017-12-30T05:59:26.035Z,87.96
2017-12-30T06:00:30.912Z,88.01
2017-12-30T06:01:35.347Z,87.91
2017-12-30T06:02:39.692Z,87.88
2017-12-30T06:03:44.449Z,87.74
2017-12-30T06:04:49.776Z,87.61
2017-12-30T06:05:54.115Z,87.54
2017-12-30T06:06:58.441Z,87.81
2017-12-30T06:08:02.716Z,87.22
2017-12-30T06:09:07.302Z,87.33
2017-12-30T06:10:11.959Z,87.15
2017-12-30T06:11:16.237Z,86.95
2017-12-30T06:12:20.558Z,86.60
2017-12-30T06:13:25.024Z,86.68
2017-12-30T06:14:29.503Z,87.08
2017-12-30T06:15:34.089Z,86.88
2017-12-30T06:16:38.422Z,86.48
2017-12-30T06:17:42.761Z,86.56
2017-12-30T06:18:48.075Z,86.35
2017-12-30T06:19:52.456Z,86.68
2017-12-30T06:20:56.751Z,86.65
2017-12-30T06:22:01.397Z,86.44
2017-12-30T06:23:05.717Z,86.14
2017-12-30T06:24:10.196Z,86.66
2017-12-30T06:25:14.779Z,86.67
2017-12-30T06:26:19.129Z,86.71
2017-12-30T06:27:23.467Z,86.71
2017-12-30T06:28:27.768Z,86.58
2017-12-30T06:29:32.243Z,86.51
2017-12-30T06:30:36.801Z,86.17
2017-12-30T06:31:41.348Z,86.18
2017-12-30T06:32:46.269Z,85.98
2017-12-30T06:33:52.330Z,85.86
2017-12-30T06:34:56.941Z,86.36
2017-12-30T06:36:01.287Z,85.96
2017-12-30T06:37:05.743Z,85.57
2017-12-30T06:38:10.078Z,85.69
2017-12-30T06:39:14.894Z,85.30
2017-12-30T06:40:19.671Z,84.97
2017-12-30T06:41:24.509Z,84.78
2017-12-30T06:42:29.245Z,85.23
2017-12-30T06:43:33.828Z,85.46
2017-12-30T06:44:38.567Z,85.54
2017-12-30T06:45:43.277Z,85.50
2017-12-30T06:46:47.691Z,85.03
2017-12-30T06:47:52.438Z,85.03
2017-12-30T06:48:57.358Z,85.14
2017-12-30T06:50:01.768Z,84.90
2017-12-30T06:51:06.163Z,84.83
2017-12-30T06:52:10.923Z,84.65
2017-12-30T06:53:15.598Z,84.34
2017-12-30T06:54:20.229Z,84.26
2017-12-30T06:55:24.674Z,83.81
2017-12-30T06:56:29.387Z,84.41
2017-12-30T06:57:33.953Z,84.23
2017-12-30T06:58:39.100Z,84.74
2017-12-30T06:59:43.540Z,84.97
2017-12-30T07:00:49.035Z,84.91
2017-12-30T07:01:53.429Z,84.46
2017-12-30T07:02:58.088Z,84.37
2017-12-30T07:04:02.435Z,84.35
2017-12-30T07:05:07.009Z,83.82
2017-12-30T07:06:11.472Z,84.38
2017-12-30T07:07:22.653Z,84.25
2017-12-30T07:08:26.935Z,83.76
2017-12-30T07:09:38.031Z,83.92
2017-12-30T07:10:42.712Z,84.03
2017-12-30T07:11:48.076Z,83.74
2017-12-30T07:12:52.486Z,83.27
2017-12-30T07:13:56.793Z,82.90
2017-12-30T07:15:03.681Z,82.68
2017-12-30T07:16:11.382Z,82.86
2017-12-30T07:17:15.978Z,83.06
2017-12-30T07:18:20.443Z,82.63
2017-12-30T07:19:24.843Z,83.31
2017-12-30T07:20:29.417Z,83.62
2017-12-30T07:21:34.104Z,83.42
2017-12-30T07:22:38.793Z,83.31
2017-12-30T07:23:43.813Z,82.86
2017-12-30T07:24:48.149Z,83.05
2017-12-30T07:25:52.495Z,82.98
2017-12-30T07:26:56.857Z,82.48
2017-12-30T07:28:01.118Z,82.25
2017-12-30T07:29:05.502Z,82.47
2017-12-30T07:30:15.606Z,82.49
2017-12-30T07:31:19.947Z,82.76
2017-12-30T07:32:35.710Z,82.69
2017-12-30T07:33:40.084Z,82.41
2017-12-30T07:34:44.860Z,82.43
2017-12-30T07:35:49.247Z,82.62
2017-12-30T07:36:54.490Z,82.39
2017-12-30T07:37:59.083Z,82.87
2017-12-30T07:39:03.688Z,83.00
2017-12-30T07:40:08.570Z,83.57
2017-12-30T07:41:13.594Z,83.35
2017-12-30T07:42:17.920Z,83.43
2017-12-30T07:43:22.331Z,82.95
2017-12-30T07:44:26.937Z,83.03
2017-12-30T07:45:32.193Z,83.45
2017-12-30T07:46:36.527Z,83.23
2017-12-30T07:47:41.236Z,83.12
2017-12-30T07:48:46.167Z,82.84
2017-12-30T07:49:50.509Z,82.62
2017-12-30T07:50:54.976Z,82.56
2017-12-30T07:51:59.293Z,82.88
2017-12-30T07:53:03.604Z,82.71
2017-12-30T07:54:08.057Z,82.88
2017-12-30T07:55:12.464Z,82.78
2017-12-30T07:56:16.793Z,82.88
2017-12-30T07:57:21.224Z,81.98
2017-12-30T07:58:25.556Z,81.92
2017-12-30T07:59:30.826Z,82.49
2017-12-30T08:00:35.806Z,82.95
2017-12-30T08:01:40.576Z,82.82
2017-12-30T08:02:45.280Z,82.92
2017-12-30T08:03:50.263Z,82.61
2017-12-30T08:04:54.623Z,83.03
2017-12-30T08:05:59.227Z,83.10
2017-12-30T08:07:03.899Z,82.95
2017-12-30T08:09:20.743Z,83.18
2017-12-30T08:10:25.231Z,83.92
2017-12-30T08:11:30.728Z,83.85
2017-12-30T08:12:35.186Z,84.32
2017-12-30T08:13:39.838Z,84.74
2017-12-30T08:14:44.283Z,84.50
2017-12-30T08:15:48.870Z,85.27
2017-12-30T08:16:53.440Z,85.00
2017-12-30T08:17:58.146Z,84.80
2017-12-30T08:19:03.208Z,85.47
2017-12-30T08:20:07.533Z,85.47
2017-12-30T08:21:11.950Z,85.35
2017-12-30T08:22:16.348Z,84.82
2017-12-30T08:23:20.725Z,85.19
2017-12-30T08:24:25.055Z,85.05
2017-12-30T08:25:29.773Z,85.56
2017-12-30T08:26:34.084Z,86.29
2017-12-30T08:27:38.569Z,86.39
2017-12-30T08:28:42.886Z,85.85
2017-12-30T08:29:48.229Z,86.62
2017-12-30T08:30:52.783Z,86.36
2017-12-30T08:31:57.567Z,86.71
2017-12-30T08:33:01.964Z,86.74
2017-12-30T08:34:06.297Z,85.70
2017-12-30T08:35:10.687Z,86.57
2017-12-30T08:36:15.010Z,86.43
2017-12-30T08:37:19.753Z,86.57
2017-12-30T08:38:24.421Z,86.59
2017-12-30T08:39:28.780Z,86.56
2017-12-30T08:40:33.145Z,86.60
2017-12-30T08:41:37.535Z,87.04
2017-12-30T08:42:41.952Z,86.16
2017-12-30T08:43:46.617Z,86.69
2017-12-30T08:44:51.098Z,86.91
2017-12-30T08:45:55.716Z,87.06
2017-12-30T08:47:00.141Z,87.65
2017-12-30T08:48:04.566Z,87.32
2017-12-30T08:49:09.375Z,87.21
2017-12-30T08:50:13.757Z,87.42
2017-12-30T08:51:18.103Z,87.26
2017-12-30T08:52:22.635Z,87.17
2017-12-30T08:53:27.315Z,87.49
2017-12-30T08:54:31.645Z,87.42
2017-12-30T08:55:36.453Z,87.45
2017-12-30T08:56:40.892Z,87.58
2017-12-30T08:57:46.195Z,87.60
2017-12-30T08:58:50.540Z,87.51
2017-12-30T08:59:54.910Z,87.53
2017-12-30T09:00:59.323Z,87.67
2017-12-30T09:02:03.994Z,88.07
2017-12-30T09:03:08.348Z,88.46
2017-12-30T09:04:12.740Z,88.41
2017-12-30T09:05:17.228Z,88.87
2017-12-30T09:06:21.644Z,88.54
2017-12-30T09:07:26.426Z,87.26
2017-12-30T09:08:32.421Z,87.94
2017-12-30T09:09:36.945Z,88.32
2017-12-30T09:10:41.320Z,88.43
2017-12-30T09:11:46.444Z,88.36
2017-12-30T09:12:50.814Z,88.79
2017-12-30T09:13:55.180Z,88.21
2017-12-30T09:14:59.788Z,87.98
2017-12-30T09:16:04.621Z,88.04
2017-12-30T09:17:09.096Z,87.98
2017-12-30T09:18:13.615Z,88.10
2017-12-30T09:19:18.224Z,88.03
2017-12-30T09:20:22.689Z,88.40
2017-12-30T09:21:27.064Z,87.82
2017-12-30T09:22:32.256Z,88.09
2017-12-30T09:23:37.029Z,88.45
2017-12-30T09:24:41.461Z,88.52
2017-12-30T09:25:46.175Z,88.26
2017-12-30T09:26:50.591Z,88.44
2017-12-30T09:27:55.029Z,88.66
2017-12-30T09:28:59.390Z,88.79
2017-12-30T09:30:07.825Z,88.60
2017-12-30T09:31:12.373Z,88.76
2017-12-30T09:32:18.895Z,88.34
2017-12-30T09:33:23.564Z,88.63
2017-12-30T09:34:28.840Z,88.61
2017-12-30T09:35:33.589Z,88.89
2017-12-30T09:36:37.997Z,88.96
2017-12-30T09:37:42.340Z,88.82
2017-12-30T09:38:46.722Z,88.92
2017-12-30T09:39:52.097Z,89.06
2017-12-30T09:40:56.587Z,88.73
2017-12-30T09:42:01.400Z,88.72
2017-12-30T09:43:06.025Z,88.65
2017-12-30T09:44:10.402Z,88.22
2017-12-30T09:45:16.609Z,88.53
2017-12-30T09:46:21.278Z,88.85
2017-12-30T09:47:25.669Z,89.06
2017-12-30T09:48:31.315Z,88.72
2017-12-30T09:49:35.826Z,88.90
2017-12-30T09:50:40.168Z,88.86
2017-12-30T09:51:44.920Z,88.95
2017-12-30T09:52:50.144Z,88.90
2017-12-30T09:53:54.785Z,88.62
2017-12-30T09:54:59.208Z,88.50
2017-12-30T09:56:03.568Z,88.90
2017-12-30T09:57:08.301Z,89.27
2017-12-30T09:58:12.693Z,89.43
2017-12-30T09:59:17.085Z,89.37
2017-12-30T10:00:31.700Z,89.00
2017-12-30T10:01:36.298Z,89.31
2017-12-30T10:02:41.066Z,89.37
2017-12-30T10:03:45.724Z,88.81
2017-12-30T10:04:50.988Z,89.08
2017-12-30T10:05:55.514Z,89.15
2017-12-30T10:06:59.881Z,89.27
2017-12-30T10:08:04.278Z,89.27
2017-12-30T10:09:08.961Z,89.39
2017-12-30T10:10:13.584Z,89.55
2017-12-30T10:11:17.968Z,89.70
2017-12-30T10:12:22.323Z,89.65
2017-12-30T10:13:27.716Z,89.43
2017-12-30T10:14:32.183Z,89.50
2017-12-30T10:15:36.761Z,89.34
2017-12-30T10:16:41.561Z,89.81
2017-12-30T10:17:45.915Z,90.12
2017-12-30T10:18:50.412Z,90.17
2017-12-30T10:19:54.924Z,90.09
2017-12-30T10:20:59.277Z,90.39
2017-12-30T10:22:03.724Z,90.29
2017-12-30T10:23:08.327Z,90.37
2017-12-30T10:24:13.088Z,90.44
2017-12-30T10:25:17.522Z,90.47
2017-12-30T10:26:22.007Z,90.63
2017-12-30T10:27:26.941Z,90.58
2017-12-30T10:28:32.228Z,90.69
2017-12-30T10:29:36.991Z,90.62
2017-12-30T10:30:41.715Z,90.66
2017-12-30T10:31:46.102Z,91.04
2017-12-30T10:32:51.373Z,90.93
2017-12-30T10:33:55.754Z,91.33
2017-12-30T10:35:00.275Z,91.29
2017-12-30T10:37:10.939Z,91.18
2017-12-30T10:38:15.811Z,91.30
2017-12-30T10:39:20.233Z,91.83
2017-12-30T10:40:31.513Z,92.03
2017-12-30T10:41:35.890Z,92.10
2017-12-30T10:42:40.667Z,91.99
2017-12-30T10:43:45.108Z,91.61
2017-12-30T10:44:49.515Z,91.89
2017-12-30T10:45:54.681Z,91.87
2017-12-30T10:46:59.146Z,91.89
2017-12-30T10:48:03.574Z,91.87
2017-12-30T10:49:08.225Z,92.17
2017-12-30T10:50:12.753Z,92.33
2017-12-30T10:51:17.175Z,92.18
2017-12-30T10:52:21.666Z,92.12
2017-12-30T10:53:26.202Z,92.19
2017-12-30T10:54:31.535Z,92.21
2017-12-30T10:55:36.330Z,92.07
2017-12-30T10:56:40.763Z,92.16
2017-12-30T10:57:45.201Z,92.01
2017-12-30T10:58:49.732Z,91.92
2017-12-30T10:59:54.112Z,91.62
2017-12-30T11:01:00.373Z,91.78
2017-12-30T11:02:04.865Z,91.98
2017-12-30T11:03:09.245Z,91.56
2017-12-30T11:04:13.727Z,91.84
2017-12-30T11:05:18.228Z,91.97
2017-12-30T11:06:22.675Z,91.95
2017-12-30T11:07:27.389Z,92.07
2017-12-30T11:08:32.457Z,92.58
2017-12-30T11:09:36.916Z,92.70
2017-12-30T11:10:41.363Z,92.65
2017-12-30T11:11:45.800Z,92.49
2017-12-30T11:12:51.107Z,92.34
2017-12-30T11:13:55.510Z,92.40
2017-12-30T11:15:00.055Z,92.52
2017-12-30T11:16:04.734Z,92.63
2017-12-30T11:17:09.399Z,92.71
2017-12-30T11:18:13.963Z,92.72
2017-12-30T11:19:18.361Z,92.59
2017-12-30T11:20:22.874Z,92.54
2017-12-30T11:21:27.193Z,92.53
2017-12-30T11:22:32.612Z,92.41
2017-12-30T11:23:37.211Z,92.50
2017-12-30T11:24:42.103Z,92.47
2017-12-30T11:25:46.723Z,91.79
2017-12-30T11:26:51.766Z,92.19
2017-12-30T11:27:56.262Z,92.37
2017-12-30T11:29:00.616Z,92.66
2017-12-30T11:30:06.947Z,92.72
2017-12-30T11:31:12.048Z,92.66
2017-12-30T11:32:16.451Z,92.38
2017-12-30T11:33:20.884Z,92.46
2017-12-30T11:34:25.464Z,92.49
2017-12-30T11:35:29.922Z,92.77
2017-12-30T11:36:34.704Z,93.02
2017-12-30T11:37:39.273Z,93.09
2017-12-30T11:38:44.177Z,93.51
2017-12-30T11:39:49.291Z,93.73
2017-12-30T11:40:53.907Z,93.71
2017-12-30T11:41:58.713Z,93.94
2017-12-30T11:43:03.173Z,93.82
2017-12-30T11:44:07.572Z,93.20
2017-12-30T11:45:16.941Z,92.80
2017-12-30T11:46:21.383Z,92.39
2017-12-30T11:47:25.870Z,92.41
2017-12-30T11:48:31.946Z,92.40
2017-12-30T11:49:36.357Z,92.54
2017-12-30T11:50:40.763Z,92.67
2017-12-30T11:51:45.174Z,93.08
2017-12-30T11:52:50.667Z,93.30
2017-12-30T11:53:55.098Z,93.23
2017-12-30T11:54:59.886Z,93.32
2017-12-30T11:56:04.852Z,93.44
2017-12-30T11:57:09.343Z,93.57
2017-12-30T11:58:13.765Z,94.07
2017-12-30T11:59:18.154Z,93.84
2017-12-30T12:00:22.957Z,93.37
2017-12-30T12:01:27.384Z,93.01
2017-12-30T12:02:32.478Z,92.61
2017-12-30T12:03:36.924Z,92.36
2017-12-30T12:04:41.399Z,92.59
2017-12-30T12:05:46.374Z,92.33
2017-12-30T12:06:50.757Z,92.48
2017-12-30T12:07:55.632Z,92.38
2017-12-30T12:09:00.212Z,92.57
2017-12-30T12:10:04.796Z,92.69
2017-12-30T12:11:09.305Z,92.81
2017-12-30T12:12:13.780Z,92.48
2017-12-30T12:13:18.689Z,92.70
2017-12-30T12:14:23.117Z,92.70
2017-12-30T12:15:28.022Z,92.68
2017-12-30T12:16:33.891Z,92.31
2017-12-30T12:17:38.468Z,92.35
2017-12-30T12:18:43.045Z,92.29
2017-12-30T12:19:47.774Z,92.11
2017-12-30T12:20:52.177Z,92.02
2017-12-30T12:21:56.618Z,91.98
2017-12-30T12:23:01.024Z,91.97
2017-12-30T12:24:05.577Z,91.79
2017-12-30T12:25:09.993Z,91.67
2017-12-30T12:26:15.302Z,91.85
2017-12-30T12:27:19.828Z,91.90
2017-12-30T12:28:24.237Z,91.81
2017-12-30T12:29:30.418Z,91.78
2017-12-30T12:30:35.171Z,91.76
2017-12-30T12:31:39.585Z,91.70
2017-12-30T12:32:44.103Z,91.77
2017-12-30T12:33:50.125Z,92.03
2017-12-30T12:34:54.722Z,92.38
2017-12-30T12:35:59.156Z,92.65
2017-12-30T12:37:03.577Z,92.85
2017-12-30T12:38:08.126Z,93.42
2017-12-30T12:39:12.576Z,93.77
2017-12-30T12:40:22.593Z,93.94
2017-12-30T12:41:27.065Z,94.03
2017-12-30T12:42:31.794Z,94.08
2017-12-30T12:43:36.256Z,94.28
2017-12-30T12:44:40.647Z,93.76
2017-12-30T12:45:46.040Z,93.36
2017-12-30T12:46:51.233Z,92.89
2017-12-30T12:47:55.621Z,92.51
2017-12-30T12:49:00.220Z,92.15
2017-12-30T12:50:04.640Z,92.02
2017-12-30T12:51:09.039Z,92.21
2017-12-30T12:52:13.570Z,92.18
2017-12-30T12:53:17.979Z,92.60
2017-12-30T12:54:22.751Z,93.11
2017-12-30T12:55:27.168Z,93.00
2017-12-30T12:56:31.921Z,93.18
2017-12-30T12:57:36.359Z,93.11
2017-12-30T12:58:40.865Z,93.07
2017-12-30T12:59:45.273Z,93.23
2017-12-30T13:00:51.670Z,93.16
2017-12-30T13:01:56.379Z,93.18
2017-12-30T13:03:00.813Z,93.09
2017-12-30T13:04:05.327Z,92.84
2017-12-30T13:05:09.727Z,93.11
2017-12-30T13:06:14.287Z,93.31
2017-12-30T13:07:19.024Z,93.00
2017-12-30T13:08:24.066Z,92.92
2017-12-30T13:09:29.125Z,92.70
2017-12-30T13:10:34.654Z,92.43
2017-12-30T13:11:39.210Z,92.25
2017-12-30T13:12:43.558Z,92.19
2017-12-30T13:13:48.917Z,92.17
2017-12-30T13:14:53.424Z,92.06
2017-12-30T13:15:58.340Z,92.22
2017-12-30T13:17:03.666Z,92.46
2017-12-30T13:18:08.037Z,92.32
2017-12-30T13:19:12.466Z,92.44
2017-12-30T13:20:16.903Z,92.25
2017-12-30T13:21:21.499Z,92.69
2017-12-30T13:22:26.028Z,92.64
2017-12-30T13:23:31.277Z,92.61
2017-12-30T13:24:35.672Z,92.95
2017-12-30T13:25:40.434Z,92.70
2017-12-30T13:26:44.944Z,93.00
2017-12-30T13:27:50.452Z,93.15
2017-12-30T13:28:54.920Z,93.26
2017-12-30T13:29:59.341Z,93.01
2017-12-30T13:31:03.909Z,92.93
2017-12-30T13:32:10.639Z,92.89
2017-12-30T13:33:15.159Z,93.21
2017-12-30T13:34:19.731Z,93.54
2017-12-30T13:35:24.195Z,93.86
2017-12-30T13:36:29.258Z,93.77
2017-12-30T13:37:33.895Z,93.85
2017-12-30T13:38:38.331Z,93.95
2017-12-30T13:39:42.803Z,93.94
2017-12-30T13:40:47.283Z,94.21
2017-12-30T13:41:53.030Z,94.48
2017-12-30T13:42:57.902Z,94.58
2017-12-30T13:44:02.616Z,94.81
2017-12-30T13:45:07.752Z,94.74
2017-12-30T13:46:12.520Z,94.96
2017-12-30T13:47:16.952Z,95.09
2017-12-30T13:48:21.712Z,95.12
2017-12-30T13:49:26.232Z,95.13
2017-12-30T13:50:30.667Z,95.23
2017-12-30T13:51:35.163Z,95.21
2017-12-30T13:52:39.628Z,95.29
2017-12-30T13:53:44.642Z,95.34
2017-12-30T13:54:49.037Z,95.39
2017-12-30T13:55:53.560Z,95.46
2017-12-30T13:56:58.518Z,95.40
2017-12-30T13:58:06.383Z,95.52